Lockport-Weather Station Historical Data
Daily Summary for September 21, 2020 Units:  Metric    English   Both
Daily Weekly Monthly Yearly Custom
  High: Low: Average:
Temperature: 20.4 °C 2.6 °C 10.3 °C
Dew Point: 7.5 °C 0.1 °C 2.8 °C
Humidity: 87% 35.2% 64%
Wind Speed: 6.8km/h 0km/h 1.9km/h
Wind Gust: 12.9km/h - -
Wind- - ESE
Pressure: 1036.5 hPa 1031.4 hPa -
Precipitation: 0 mm    
 
 
Tabular Data for September 21, 2020
Time Temperature Dew Point Pressure Wind Wind Speed Wind Gust Humidity Rainfall Rate (Hourly) solar
00:04 7.3 °C 2.3 °C 1035.4 hPa ENE 1.8 km/h 3.2 km/h 70.5% 0 mm W/m2
00:09 7.3 °C 2.2 °C 1035.4 hPa ENE 1.1 km/h 3.2 km/h 70% 0 mm W/m2
00:14 7.2 °C 2.3 °C 1035.4 hPa ENE 1 km/h 3.2 km/h 70.8% 0 mm W/m2
00:19 7.1 °C 2.2 °C 1035.4 hPa ENE 1.6 km/h 3.2 km/h 71.1% 0 mm W/m2
00:24 7.1 °C 2.3 °C 1035.4 hPa ENE 1.8 km/h 3.2 km/h 71.4% 0 mm W/m2
00:29 7.1 °C 2.3 °C 1035.4 hPa ENE 1.6 km/h 3.2 km/h 71.6% 0 mm W/m2
00:34 6.9 °C 2.3 °C 1035.4 hPa ENE 1.9 km/h 3.2 km/h 72.9% 0 mm W/m2
00:39 6.6 °C 2.3 °C 1035.4 hPa ENE 2.4 km/h 4.8 km/h 74.3% 0 mm W/m2
00:44 6.6 °C 2.3 °C 1035.4 hPa ENE 1.9 km/h 4.8 km/h 73.7% 0 mm W/m2
00:49 6.8 °C 2.3 °C 1035.4 hPa ENE 2.4 km/h 4.8 km/h 73.2% 0 mm W/m2
00:54 6.8 °C 2.3 °C 1035.4 hPa ENE 2.1 km/h 4.8 km/h 72.8% 0 mm W/m2
00:59 6.8 °C 2.3 °C 1035.4 hPa ENE 2.3 km/h 4.8 km/h 72.9% 0 mm W/m2
01:04 6.8 °C 2.1 °C 1035.4 hPa ENE 1.9 km/h 3.2 km/h 72.3% 0 mm W/m2
01:09 6.7 °C 2.2 °C 1035.4 hPa ENE 1.8 km/h 3.2 km/h 72.9% 0 mm W/m2
01:14 6.6 °C 2.3 °C 1035.4 hPa ENE 1.3 km/h 3.2 km/h 74.2% 0 mm W/m2
01:19 6.2 °C 2.2 °C 1035.4 hPa ENE 1.4 km/h 3.2 km/h 75.3% 0 mm W/m2
01:24 5.9 °C 2.2 °C 1035.4 hPa ENE 1.8 km/h 3.2 km/h 76.4% 0 mm W/m2
01:29 6.1 °C 2.2 °C 1035.4 hPa ENE 2.3 km/h 3.2 km/h 76.6% 0 mm W/m2
01:34 6.3 °C 2.2 °C 1035.4 hPa ENE 2.3 km/h 3.2 km/h 75.4% 0 mm W/m2
01:39 6.4 °C 2.2 °C 1035.4 hPa ENE 1.8 km/h 3.2 km/h 74.6% 0 mm W/m2
01:44 6.4 °C 2.1 °C 1035.4 hPa ENE 0.8 km/h 3.2 km/h 74.2% 0 mm W/m2
01:49 6.2 °C 2.1 °C 1035.4 hPa ENE 1.1 km/h 3.2 km/h 75% 0 mm W/m2
01:54 5.9 °C 2 °C 1035.4 hPa ENE 0.2 km/h 3.2 km/h 75.8% 0 mm W/m2
01:59 5.7 °C 2 °C 1035.4 hPa ENE 0.6 km/h 1.6 km/h 76.8% 0 mm W/m2
02:04 5.6 °C 1.9 °C 1035.4 hPa ENE 0.6 km/h 1.6 km/h 77.2% 0 mm W/m2
02:09 5.4 °C 1.8 °C 1035.4 hPa ENE 1.6 km/h 3.2 km/h 77.6% 0 mm W/m2
02:14 5.4 °C 2 °C 1035.4 hPa ENE 0.6 km/h 3.2 km/h 78.7% 0 mm W/m2
02:19 5.4 °C 2.1 °C 1035.1 hPa ENE 1.1 km/h 3.2 km/h 79% 0 mm W/m2
02:24 5.4 °C 2.1 °C 1035.1 hPa ENE 0.5 km/h 3.2 km/h 79% 0 mm W/m2
02:29 5.4 °C 2.1 °C 1035.1 hPa ENE 1 km/h 3.2 km/h 79% 0 mm W/m2
02:34 5.4 °C 2.1 °C 1035.1 hPa ENE 1 km/h 3.2 km/h 79% 0 mm W/m2
02:39 5.4 °C 2.1 °C 1035.1 hPa ENE 0.8 km/h 3.2 km/h 79% 0 mm W/m2
02:44 5.3 °C 2 °C 1035.1 hPa ENE 1.1 km/h 3.2 km/h 79% 0 mm W/m2
02:49 5.2 °C 1.8 °C 1035.1 hPa ENE 1.8 km/h 3.2 km/h 79% 0 mm W/m2
02:54 5 °C 1.8 °C 1035.1 hPa ENE 1.3 km/h 3.2 km/h 80% 0 mm W/m2
02:59 4.8 °C 1.7 °C 1035.1 hPa ENE 1.3 km/h 3.2 km/h 80% 0 mm W/m2
03:04 4.7 °C 1.6 °C 1035.1 hPa ENE 1.6 km/h 3.2 km/h 80.6% 0 mm W/m2
03:09 4.4 °C 1.4 °C 1035.1 hPa ENE 1.4 km/h 3.2 km/h 81% 0 mm W/m2
03:14 4.3 °C 1.4 °C 1035.1 hPa ENE 1.4 km/h 3.2 km/h 81.4% 0 mm W/m2
03:19 4.3 °C 1.5 °C 1035.1 hPa ENE 1.3 km/h 3.2 km/h 82% 0 mm W/m2
03:24 4.2 °C 1.4 °C 1035.1 hPa ENE 0.6 km/h 3.2 km/h 82% 0 mm W/m2
03:29 4.2 °C 1.4 °C 1034.8 hPa ENE 0.8 km/h 1.6 km/h 82% 0 mm W/m2
03:34 4.2 °C 1.6 °C 1034.8 hPa ENE 1.9 km/h 3.2 km/h 83% 0 mm W/m2
03:39 4.2 °C 1.6 °C 1035.1 hPa ENE 1.6 km/h 3.2 km/h 83% 0 mm W/m2
03:44 4.2 °C 1.6 °C 1034.8 hPa ENE 1.4 km/h 3.2 km/h 83% 0 mm W/m2
03:49 4.2 °C 1.6 °C 1035.1 hPa ENE 1.6 km/h 3.2 km/h 83% 0 mm W/m2
03:54 4.2 °C 1.6 °C 1035.1 hPa ENE 1.4 km/h 3.2 km/h 83% 0 mm W/m2
03:59 4.1 °C 1.5 °C 1035.1 hPa ENE 1.3 km/h 3.2 km/h 83% 0 mm W/m2
04:04 4.1 °C 1.5 °C 1035.1 hPa ENE 0.6 km/h 3.2 km/h 83% 0 mm W/m2
04:09 4.1 °C 1.5 °C 1035.1 hPa Calm   1.6 km/h 83% 0 mm W/m2
04:14 4.1 °C 1.3 °C 1035.1 hPa ENE 0.2 km/h 1.6 km/h 82.2% 0 mm W/m2
04:19 4.1 °C 1.3 °C 1035.1 hPa Calm   1.6 km/h 82% 0 mm W/m2
04:24 4.1 °C 1.3 °C 1035.1 hPa Calm   1.6 km/h 82% 0 mm W/m2
04:29 4.1 °C 1.3 °C 1035.1 hPa Calm     82% 0 mm W/m2
04:34 4.1 °C 1.3 °C 1035.1 hPa Calm     82% 0 mm W/m2
04:39 4 °C 1.2 °C 1035.1 hPa Calm     82% 0 mm W/m2
04:44 3.9 °C 1.2 °C 1035.1 hPa Calm     82% 0 mm W/m2
04:49 3.9 °C 1.2 °C 1035.1 hPa Calm     82% 0 mm W/m2
04:54 3.9 °C 1.1 °C 1035.1 hPa Calm     82% 0 mm W/m2
04:59 3.8 °C 1.1 °C 1035.1 hPa Calm     82% 0 mm W/m2
05:04 3.8 °C 1.1 °C 1035.1 hPa Calm     82% 0 mm W/m2
05:09 3.8 °C 1 °C 1035.1 hPa Calm     82% 0 mm W/m2
05:14 3.8 °C 1 °C 1035.1 hPa Calm     82% 0 mm W/m2
05:19 3.7 °C 0.9 °C 1035.4 hPa Calm     82% 0 mm W/m2
05:24 3.7 °C 0.9 °C 1035.4 hPa Calm     82% 0 mm W/m2
05:29 3.6 °C 0.8 °C 1035.4 hPa Calm     82% 0 mm W/m2
05:34 3.6 °C 0.8 °C 1035.1 hPa Calm     82% 0 mm W/m2
05:39 3.5 °C 0.7 °C 1035.1 hPa Calm     82% 0 mm W/m2
05:44 3.4 °C 0.7 °C 1035.4 hPa Calm     82% 0 mm W/m2
05:49 3.4 °C 0.6 °C 1035.4 hPa Calm     82% 0 mm W/m2
05:54 3.3 °C 0.6 °C 1035.4 hPa Calm     82% 0 mm W/m2
05:59 3.3 °C 0.7 °C 1035.4 hPa Calm     82.9% 0 mm W/m2
06:04 3.3 °C 0.7 °C 1035.4 hPa Calm     83% 0 mm W/m2
06:09 3.2 °C 0.6 °C 1035.4 hPa Calm     83% 0 mm W/m2
06:14 3.2 °C 0.6 °C 1035.4 hPa Calm     83% 0 mm W/m2
06:19 3.2 °C 0.7 °C 1035.4 hPa Calm     84% 0 mm W/m2
06:24 3.1 °C 0.7 °C 1035.4 hPa Calm     84% 0 mm W/m2
06:29 3.1 °C 0.6 °C 1035.4 hPa Calm     83.7% 0 mm W/m2
06:34 3 °C 0.4 °C 1035.4 hPa Calm     83% 0 mm W/m2
06:39 2.9 °C 0.3 °C 1035.4 hPa Calm     83% 0 mm W/m2
06:44 2.9 °C 0.3 °C 1035.4 hPa Calm     83% 0 mm W/m2
06:49 2.8 °C 0.2 °C 1035.4 hPa Calm     83% 0 mm W/m2
06:54 2.8 °C 0.2 °C 1035.4 hPa Calm     83% 0 mm W/m2
06:59 2.7 °C 0.3 °C 1035.4 hPa Calm     83.8% 0 mm W/m2
07:04 2.7 °C 0.2 °C 1035.8 hPa Calm     84% 0 mm W/m2
07:09 2.7 °C 0.1 °C 1035.8 hPa Calm     83.4% 0 mm W/m2
07:14 2.6 °C 0.1 °C 1035.8 hPa Calm     83.6% 0 mm W/m2
07:19 2.6 °C 0.2 °C 1035.8 hPa Calm     84% 0 mm W/m2
07:24 2.6 °C 0.1 °C 1035.8 hPa Calm     84% 0 mm W/m2
07:29 2.6 °C 0.1 °C 1035.8 hPa Calm     84% 0 mm W/m2
07:34 2.6 °C 0.1 °C 1035.8 hPa Calm     84% 0 mm W/m2
07:39 2.6 °C 0.3 °C 1035.8 hPa Calm     84.8% 0 mm W/m2
07:44 2.6 °C 0.3 °C 1035.8 hPa Calm     85% 0 mm W/m2
07:49 2.7 °C 0.4 °C 1035.8 hPa Calm     85% 0 mm W/m2
07:54 2.8 °C 0.6 °C 1035.8 hPa Calm     85.5% 0 mm W/m2
07:59 2.9 °C 0.8 °C 1036.1 hPa ENE 1 km/h 3.2 km/h 86% 0 mm W/m2
08:04 3.1 °C 1 °C 1036.1 hPa ENE 1 km/h 3.2 km/h 86.2% 0 mm W/m2
08:09 3.2 °C 1.3 °C 1035.8 hPa East 1.4 km/h 3.2 km/h 87% 0 mm W/m2
08:14 3.4 °C 1.4 °C 1035.8 hPa SSE 1.4 km/h 3.2 km/h 87% 0 mm W/m2
08:19 3.6 °C 1.7 °C 1035.8 hPa SSE 2.6 km/h 6.4 km/h 87% 0 mm W/m2
08:24 3.9 °C 1.9 °C 1035.8 hPa South 3.2 km/h 8 km/h 86.8% 0 mm W/m2
08:29 4.3 °C 2.1 °C 1035.8 hPa South 3.2 km/h 8 km/h 85.8% 0 mm W/m2
08:34 4.6 °C 2.3 °C 1036.1 hPa South 2.7 km/h 9.7 km/h 85% 0 mm W/m2
08:39 4.9 °C 2.4 °C 1036.1 hPa South 3.1 km/h 9.7 km/h 83.8% 0 mm W/m2
08:44 5.3 °C 2.6 °C 1036.1 hPa SSE 3.7 km/h 9.7 km/h 82.5% 0 mm W/m2
08:49 5.7 °C 2.6 °C 1036.1 hPa SSE 3.1 km/h 8 km/h 80.4% 0 mm W/m2
08:54 6.1 °C 2.7 °C 1036.1 hPa South 3.9 km/h 8 km/h 78.4% 0 mm W/m2
08:59 6.5 °C 2.7 °C 1036.1 hPa SSE 3.7 km/h 8 km/h 76.4% 0 mm W/m2
09:04 7 °C 2.7 °C 1036.1 hPa South 3.9 km/h 8 km/h 74.3% 0 mm W/m2
09:09 8.4 °C 3.2 °C 1036.1 hPa South 3.5 km/h 8 km/h 69.8% 0 mm W/m2
09:14 9.2 °C 3.2 °C 1036.1 hPa South 2.6 km/h 8 km/h 66.5% 0 mm W/m2
09:19 9.6 °C 3.2 °C 1036.1 hPa SSE 3.9 km/h 8 km/h 64.6% 0 mm W/m2
09:24 9.9 °C 3.4 °C 1036.1 hPa SSW 2.3 km/h 8 km/h 63.7% 0 mm W/m2
09:29 10.3 °C 3.6 °C 1036.1 hPa South 3.4 km/h 8 km/h 63.1% 0 mm W/m2
09:34 10.6 °C 3.4 °C 1036.5 hPa SSE 3.9 km/h 8 km/h 61.1% 0 mm W/m2
09:39 10.9 °C 3.5 °C 1036.5 hPa SSE 3.1 km/h 8 km/h 60.4% 0 mm W/m2
09:44 11.2 °C 3.9 °C 1036.5 hPa SSE 2.3 km/h 8 km/h 60.7% 0 mm W/m2
09:49 11.6 °C 4.1 °C 1036.5 hPa South 2.4 km/h 6.4 km/h 60.3% 0 mm W/m2
09:54 11.9 °C 4 °C 1036.5 hPa South 3.2 km/h 8 km/h 58.5% 0 mm W/m2
09:59 12.3 °C 4.4 °C 1036.5 hPa SSE 2.4 km/h 8 km/h 58.7% 0 mm W/m2
10:04 12.5 °C 4.3 °C 1036.5 hPa SSE 3.5 km/h 8 km/h 57.5% 0 mm W/m2
10:09 12.8 °C 4.4 °C 1036.5 hPa South 3.9 km/h 9.7 km/h 56.8% 0 mm W/m2
10:14 13.2 °C 4.7 °C 1036.5 hPa SSW 2.7 km/h 9.7 km/h 56.6% 0 mm W/m2
10:19 13.5 °C 5 °C 1036.5 hPa SSE 4 km/h 9.7 km/h 56.5% 0 mm W/m2
10:24 14 °C 5.2 °C 1036.5 hPa SSE 2.7 km/h 8 km/h 55.2% 0 mm W/m2
10:29 14.3 °C 4.9 °C 1036.5 hPa South 2.9 km/h 9.7 km/h 53.1% 0 mm W/m2
10:34 14.6 °C 4.9 °C 1036.5 hPa SSE 3.4 km/h 9.7 km/h 52.1% 0 mm W/m2
10:39 14.9 °C 4.7 °C 1036.5 hPa SSE 5 km/h 11.3 km/h 50.4% 0 mm W/m2
10:44 15.1 °C 4.3 °C 1036.5 hPa SSE 3.9 km/h 11.3 km/h 48.5% 0 mm W/m2
10:49 15.4 °C 4.5 °C 1036.5 hPa SSW 4 km/h 11.3 km/h 48.2% 0 mm W/m2
10:54 15.6 °C 4.4 °C 1036.5 hPa SSE 3.7 km/h 8 km/h 47.2% 0 mm W/m2
10:59 16 °C 4.9 °C 1036.5 hPa South 2.6 km/h 8 km/h 47.7% 0 mm W/m2
11:04 16.5 °C 5.3 °C 1036.5 hPa SSE 3.1 km/h 8 km/h 47.6% 0 mm W/m2
11:14 16.6 °C 4.7 °C 1036.1 hPa SSW 2.7 km/h 8 km/h 45.3% 0 mm W/m2
11:19 16.9 °C 5.4 °C 1036.1 hPa SW 2.4 km/h 6.4 km/h 46.8% 0 mm W/m2
11:24 17.2 °C 5 °C 1036.1 hPa WSW 3.2 km/h 8 km/h 44.7% 0 mm W/m2
11:29 17.4 °C 4.9 °C 1036.1 hPa SSE 2.9 km/h 8 km/h 43.5% 0 mm W/m2
11:34 17.1 °C 4.3 °C 1036.1 hPa SE 3.2 km/h 8 km/h 42.8% 0 mm W/m2
11:39 17.1 °C 4.7 °C 1036.1 hPa SSE 1 km/h 6.4 km/h 44.1% 0 mm W/m2
11:44 17.4 °C 4.7 °C 1036.1 hPa SSE 2.1 km/h 8 km/h 43% 0 mm W/m2
11:49 17.8 °C 3.6 °C 1036.1 hPa SSE 2.9 km/h 8 km/h 39.1% 0 mm W/m2
11:54 17.8 °C 3.9 °C 1035.8 hPa SSE 2.4 km/h 8 km/h 39.7% 0 mm W/m2
11:59 17.6 °C 2.7 °C 1035.8 hPa SSE 3.1 km/h 6.4 km/h 37% 0 mm W/m2
12:04 17.4 °C 2.7 °C 1035.8 hPa South 1.8 km/h 6.4 km/h 37.3% 0 mm W/m2
12:09 17.4 °C 3.6 °C 1035.8 hPa South 1.3 km/h 6.4 km/h 39.8% 0 mm W/m2
12:14 17.7 °C 4 °C 1035.8 hPa South 2.1 km/h 4.8 km/h 40.4% 0 mm W/m2
12:19 18.1 °C 4.5 °C 1035.8 hPa SE 2.7 km/h 8 km/h 40.7% 0 mm W/m2
12:24 17.8 °C 3.2 °C 1035.4 hPa SSE 3.4 km/h 11.3 km/h 37.8% 0 mm W/m2
12:29 17.7 °C 3.1 °C 1035.4 hPa SSW 3.1 km/h 11.3 km/h 37.9% 0 mm W/m2
12:34 17.7 °C 2.9 °C 1035.4 hPa South 3.5 km/h 11.3 km/h 37.2% 0 mm W/m2
12:39 17.3 °C 2.3 °C 1035.4 hPa South 3.2 km/h 9.7 km/h 36.5% 0 mm W/m2
12:44 17.3 °C 2.7 °C 1035.1 hPa SW 2.3 km/h 6.4 km/h 37.7% 0 mm W/m2
12:49 17.2 °C 2.6 °C 1035.1 hPa SW 0.8 km/h 4.8 km/h 37.7% 0 mm W/m2
12:54 17.3 °C 3 °C 1035.1 hPa SW 3.5 km/h 8 km/h 38.5% 0 mm W/m2
12:59 17.6 °C 2.8 °C 1035.1 hPa SSW 3.9 km/h 9.7 km/h 37.3% 0 mm W/m2
13:04 17.4 °C 3.8 °C 1034.8 hPa SSW 1.1 km/h 9.7 km/h 40.4% 0 mm W/m2
13:09 17.7 °C 2.9 °C 1034.8 hPa SSW 3.5 km/h 9.7 km/h 37.5% 0 mm W/m2
13:14 17.7 °C 3.7 °C 1034.8 hPa SE 2.6 km/h 8 km/h 39.3% 0 mm W/m2
13:19 17.8 °C 4 °C 1034.8 hPa ENE 3.7 km/h 8 km/h 39.8% 0 mm W/m2
13:24 17.7 °C 3.1 °C 1034.8 hPa ENE 1.6 km/h 8 km/h 37.9% 0 mm W/m2
13:29 17.8 °C 3.3 °C 1034.8 hPa SE 2.1 km/h 8 km/h 38% 0 mm W/m2
13:34 18 °C 3.9 °C 1034.4 hPa East 2.9 km/h 6.4 km/h 39.2% 0 mm W/m2
13:39 18.1 °C 4.4 °C 1034.4 hPa NNE 1.8 km/h 6.4 km/h 40.3% 0 mm W/m2
13:44 18.2 °C 4.7 °C 1034.4 hPa NE 3.2 km/h 6.4 km/h 40.8% 0 mm W/m2
13:49 18.4 °C 4.6 °C 1034.4 hPa ENE 2.6 km/h 6.4 km/h 40.1% 0 mm W/m2
13:54 18.4 °C 4.1 °C 1034.1 hPa ENE 2.7 km/h 6.4 km/h 38.8% 0 mm W/m2
13:59 18.4 °C 4 °C 1034.1 hPa SSE 2.6 km/h 8 km/h 38.4% 0 mm W/m2
14:04 18.4 °C 3.7 °C 1034.1 hPa South 2.7 km/h 8 km/h 37.8% 0 mm W/m2
14:09 18.4 °C 3.8 °C 1033.7 hPa SE 3.5 km/h 9.7 km/h 38% 0 mm W/m2
14:14 18.3 °C 3.7 °C 1033.7 hPa SE 3.1 km/h 9.7 km/h 37.8% 0 mm W/m2
14:19 18.6 °C 3.6 °C 1033.7 hPa South 3.7 km/h 9.7 km/h 37% 0 mm W/m2
14:24 18.6 °C 4.3 °C 1033.4 hPa SE 3.5 km/h 9.7 km/h 39% 0 mm W/m2
14:29 18.4 °C 3.9 °C 1033.4 hPa East 2.6 km/h 8 km/h 38.3% 0 mm W/m2
14:34 18.3 °C 3.7 °C 1033.4 hPa NE 3.5 km/h 8 km/h 38% 0 mm W/m2
14:39 18.1 °C 3.1 °C 1033.1 hPa NNE 2.6 km/h 8 km/h 37% 0 mm W/m2
14:44 18.2 °C 3.6 °C 1033.1 hPa NNE 2.3 km/h 6.4 km/h 37.8% 0 mm W/m2
14:49 18.3 °C 4.7 °C 1033.1 hPa NE 2.6 km/h 6.4 km/h 40.7% 0 mm W/m2
14:54 18.3 °C 3.7 °C 1033.1 hPa ESE 2.3 km/h 6.4 km/h 37.8% 0 mm W/m2
14:59 18.4 °C 4.8 °C 1032.7 hPa SSE 2.3 km/h 6.4 km/h 40.8% 0 mm W/m2
15:04 18.5 °C 4.4 °C 1032.7 hPa SSE 2.4 km/h 4.8 km/h 39.5% 0 mm W/m2
15:09 18.8 °C 4.3 °C 1032.7 hPa SSE 2.1 km/h 4.8 km/h 38.4% 0 mm W/m2
15:14 19.1 °C 4.2 °C 1032.7 hPa SSE 1.4 km/h 4.8 km/h 37.7% 0 mm W/m2
15:19 18.8 °C 4.3 °C 1032.4 hPa SSE 1.3 km/h 4.8 km/h 38.6% 0 mm W/m2
15:24 18.7 °C 4.1 °C 1032.4 hPa SSE 1.1 km/h 4.8 km/h 38.1% 0 mm W/m2
15:29 19.1 °C 5.3 °C 1032.4 hPa SSE 0.8 km/h 4.8 km/h 40.4% 0 mm W/m2
15:34 19.5 °C 5.5 °C 1032.4 hPa SSE 1.1 km/h 4.8 km/h 40% 0 mm W/m2
15:39 19.3 °C 5.3 °C 1032.4 hPa SSE 1.8 km/h 4.8 km/h 40.1% 0 mm W/m2
15:44 18.9 °C 5.7 °C 1032.4 hPa SSE 1.9 km/h 4.8 km/h 41.9% 0 mm W/m2
15:49 19.7 °C 5.4 °C 1032.1 hPa SSE 1.8 km/h 4.8 km/h 39.4% 0 mm W/m2
15:54 19.3 °C 4.7 °C 1032.1 hPa SE 2.9 km/h 6.4 km/h 38.2% 0 mm W/m2
15:59 19.7 °C 5.3 °C 1032.1 hPa East 4.2 km/h 8 km/h 39% 0 mm W/m2
16:04 19.7 °C 3.8 °C 1031.7 hPa East 1.4 km/h 8 km/h 35.2% 0 mm W/m2
16:09 19.4 °C 3.8 °C 1031.7 hPa SE 2.1 km/h 8 km/h 35.7% 0 mm W/m2
16:14 19.4 °C 3.6 °C 1031.7 hPa South 2.6 km/h 6.4 km/h 35.2% 0 mm W/m2
16:19 19.7 °C 4.3 °C 1031.7 hPa South 1.8 km/h 6.4 km/h 36.3% 0 mm W/m2
16:24 19.8 °C 5.9 °C 1031.4 hPa South 1.6 km/h 6.4 km/h 40.4% 0 mm W/m2
16:29 20.4 °C 7 °C 1031.4 hPa ENE 4.5 km/h 8 km/h 41.9% 0 mm W/m2
16:34 20 °C 7.5 °C 1031.4 hPa ENE 5.8 km/h 11.3 km/h 44.5% 0 mm W/m2
16:39 19.5 °C 7.5 °C 1031.4 hPa NE 5.3 km/h 11.3 km/h 45.8% 0 mm W/m2
16:44 18.9 °C 7.2 °C 1031.4 hPa NE 6.3 km/h 11.3 km/h 46.5% 0 mm W/m2
16:49 18.3 °C 6.9 °C 1031.4 hPa NE 6.8 km/h 11.3 km/h 47.7% 0 mm W/m2
16:54 18.1 °C 7.2 °C 1031.4 hPa ENE 5.6 km/h 11.3 km/h 49% 0 mm W/m2
16:59 17.9 °C 7.2 °C 1031.4 hPa NNE 5.5 km/h 11.3 km/h 49.9% 0 mm W/m2
17:04 17.7 °C 6.8 °C 1031.4 hPa NNE 5.5 km/h 11.3 km/h 48.8% 0 mm W/m2
17:09 17.4 °C 6.9 °C 1031.4 hPa North 6.6 km/h 12.9 km/h 50% 0 mm W/m2
17:14 17.2 °C 6.8 °C 1031.4 hPa NE 6.3 km/h 12.9 km/h 50.5% 0 mm W/m2
Lockport, New York, USA
Compliments of Weather Underground - 2.25 mb